sensor_id;sensor_type;location;lat;lon;timestamp;P1;durP1;ratioP1;P2;durP2;ratioP2
5493;SDS011;2769;49.864;8.656;2023-03-11T00:00:44;1.80;;;1.70;;
5493;SDS011;2769;49.864;8.656;2023-03-11T00:03:14;1.90;;;1.70;;
5493;SDS011;2769;49.864;8.656;2023-03-11T00:05:44;1.87;;;1.77;;
5493;SDS011;2769;49.864;8.656;2023-03-11T00:08:13;2.60;;;1.50;;
5493;SDS011;2769;49.864;8.656;2023-03-11T00:10:43;1.80;;;1.70;;
5493;SDS011;2769;49.864;8.656;2023-03-11T00:13:13;1.47;;;1.37;;
5493;SDS011;2769;49.864;8.656;2023-03-11T00:15:42;4.30;;;1.70;;
5493;SDS011;2769;49.864;8.656;2023-03-11T00:18:12;1.70;;;1.40;;
5493;SDS011;2769;49.864;8.656;2023-03-11T00:20:41;1.30;;;1.20;;
5493;SDS011;2769;49.864;8.656;2023-03-11T00:23:10;1.63;;;1.30;;
5493;SDS011;2769;49.864;8.656;2023-03-11T00:25:39;1.20;;;1.20;;
5493;SDS011;2769;49.864;8.656;2023-03-11T00:28:07;1.50;;;1.17;;
5493;SDS011;2769;49.864;8.656;2023-03-11T00:30:36;3.43;;;1.20;;
5493;SDS011;2769;49.864;8.656;2023-03-11T00:33:05;1.77;;;1.67;;
5493;SDS011;2769;49.864;8.656;2023-03-11T00:35:34;2.50;;;1.10;;
5493;SDS011;2769;49.864;8.656;2023-03-11T00:38:03;1.80;;;1.10;;
5493;SDS011;2769;49.864;8.656;2023-03-11T00:40:33;5.87;;;1.07;;
5493;SDS011;2769;49.864;8.656;2023-03-11T00:43:02;0.80;;;0.80;;
5493;SDS011;2769;49.864;8.656;2023-03-11T00:45:30;0.90;;;0.90;;
5493;SDS011;2769;49.864;8.656;2023-03-11T00:47:59;0.63;;;0.63;;
5493;SDS011;2769;49.864;8.656;2023-03-11T00:50:29;1.87;;;1.10;;
5493;SDS011;2769;49.864;8.656;2023-03-11T00:52:59;1.40;;;0.80;;
5493;SDS011;2769;49.864;8.656;2023-03-11T00:55:28;0.73;;;0.73;;
5493;SDS011;2769;49.864;8.656;2023-03-11T00:57:58;1.33;;;0.80;;
5493;SDS011;2769;49.864;8.656;2023-03-11T01:00:35;1.20;;;1.10;;
5493;SDS011;2769;49.864;8.656;2023-03-11T01:03:02;0.90;;;0.90;;
5493;SDS011;2769;49.864;8.656;2023-03-11T01:05:32;1.57;;;1.13;;
5493;SDS011;2769;49.864;8.656;2023-03-11T01:08:01;1.90;;;1.00;;
5493;SDS011;2769;49.864;8.656;2023-03-11T01:10:31;0.70;;;0.70;;
5493;SDS011;2769;49.864;8.656;2023-03-11T01:12:59;1.73;;;1.10;;
5493;SDS011;2769;49.864;8.656;2023-03-11T01:15:29;2.93;;;1.20;;
5493;SDS011;2769;49.864;8.656;2023-03-11T01:17:58;1.37;;;0.80;;
5493;SDS011;2769;49.864;8.656;2023-03-11T01:20:26;0.70;;;0.70;;
5493;SDS011;2769;49.864;8.656;2023-03-11T01:22:56;0.90;;;0.90;;
5493;SDS011;2769;49.864;8.656;2023-03-11T01:25:24;3.17;;;0.90;;
5493;SDS011;2769;49.864;8.656;2023-03-11T01:27:52;1.90;;;0.80;;
5493;SDS011;2769;49.864;8.656;2023-03-11T01:30:21;3.80;;;1.10;;
5493;SDS011;2769;49.864;8.656;2023-03-11T01:32:51;2.07;;;1.10;;
5493;SDS011;2769;49.864;8.656;2023-03-11T01:35:20;2.77;;;1.10;;
5493;SDS011;2769;49.864;8.656;2023-03-11T01:37:49;1.93;;;1.10;;
5493;SDS011;2769;49.864;8.656;2023-03-11T01:40:21;1.10;;;0.80;;
5493;SDS011;2769;49.864;8.656;2023-03-11T01:42:52;1.10;;;1.00;;
5493;SDS011;2769;49.864;8.656;2023-03-11T01:48:30;2.77;;;0.80;;
5493;SDS011;2769;49.864;8.656;2023-03-11T01:50:58;0.93;;;0.90;;
5493;SDS011;2769;49.864;8.656;2023-03-11T01:53:27;1.27;;;0.80;;
5493;SDS011;2769;49.864;8.656;2023-03-11T01:55:56;1.73;;;1.00;;
5493;SDS011;2769;49.864;8.656;2023-03-11T01:58:27;1.10;;;1.00;;
5493;SDS011;2769;49.864;8.656;2023-03-11T02:00:57;2.10;;;1.00;;
5493;SDS011;2769;49.864;8.656;2023-03-11T02:03:27;3.17;;;0.90;;
5493;SDS011;2769;49.864;8.656;2023-03-11T02:05:59;4.70;;;1.20;;
5493;SDS011;2769;49.864;8.656;2023-03-11T02:08:28;2.00;;;1.00;;
5493;SDS011;2769;49.864;8.656;2023-03-11T02:11:02;1.20;;;1.10;;
5493;SDS011;2769;49.864;8.656;2023-03-11T02:13:32;2.10;;;0.90;;
5493;SDS011;2769;49.864;8.656;2023-03-11T02:16:01;1.03;;;1.00;;
5493;SDS011;2769;49.864;8.656;2023-03-11T02:18:31;4.30;;;1.10;;
5493;SDS011;2769;49.864;8.656;2023-03-11T02:21:03;3.17;;;1.50;;
5493;SDS011;2769;49.864;8.656;2023-03-11T02:23:35;1.23;;;0.90;;
5493;SDS011;2769;49.864;8.656;2023-03-11T02:26:20;3.53;;;1.30;;
5493;SDS011;2769;49.864;8.656;2023-03-11T02:28:53;2.77;;;0.90;;
5493;SDS011;2769;49.864;8.656;2023-03-11T02:31:22;1.60;;;0.87;;
5493;SDS011;2769;49.864;8.656;2023-03-11T02:33:52;1.67;;;1.10;;
5493;SDS011;2769;49.864;8.656;2023-03-11T02:36:31;1.00;;;1.00;;
5493;SDS011;2769;49.864;8.656;2023-03-11T02:39:02;2.40;;;0.90;;
5493;SDS011;2769;49.864;8.656;2023-03-11T02:41:32;1.30;;;1.17;;
5493;SDS011;2769;49.864;8.656;2023-03-11T02:44:05;1.80;;;1.17;;
5493;SDS011;2769;49.864;8.656;2023-03-11T02:46:34;1.17;;;1.00;;
5493;SDS011;2769;49.864;8.656;2023-03-11T02:49:02;4.47;;;1.07;;
5493;SDS011;2769;49.864;8.656;2023-03-11T02:51:32;6.30;;;1.07;;
5493;SDS011;2769;49.864;8.656;2023-03-11T02:54:00;1.00;;;1.00;;
5493;SDS011;2769;49.864;8.656;2023-03-11T02:56:31;1.33;;;1.23;;
5493;SDS011;2769;49.864;8.656;2023-03-11T02:58:59;3.13;;;0.80;;
5493;SDS011;2769;49.864;8.656;2023-03-11T03:01:30;6.50;;;1.17;;
5493;SDS011;2769;49.864;8.656;2023-03-11T03:03:58;4.20;;;1.17;;
5493;SDS011;2769;49.864;8.656;2023-03-11T03:06:29;4.63;;;1.37;;
5493;SDS011;2769;49.864;8.656;2023-03-11T03:08:57;2.13;;;1.07;;
5493;SDS011;2769;49.864;8.656;2023-03-11T03:11:25;3.50;;;1.03;;
5493;SDS011;2769;49.864;8.656;2023-03-11T03:13:53;1.53;;;0.93;;
5493;SDS011;2769;49.864;8.656;2023-03-11T03:16:21;1.40;;;1.00;;
5493;SDS011;2769;49.864;8.656;2023-03-11T03:18:50;2.10;;;1.23;;
5493;SDS011;2769;49.864;8.656;2023-03-11T03:21:18;7.20;;;1.10;;
5493;SDS011;2769;49.864;8.656;2023-03-11T03:23:47;2.60;;;1.20;;
5493;SDS011;2769;49.864;8.656;2023-03-11T03:26:15;2.00;;;1.23;;
5493;SDS011;2769;49.864;8.656;2023-03-11T03:28:46;3.37;;;1.20;;
5493;SDS011;2769;49.864;8.656;2023-03-11T03:31:14;3.43;;;1.27;;
5493;SDS011;2769;49.864;8.656;2023-03-11T03:33:42;4.10;;;1.87;;
5493;SDS011;2769;49.864;8.656;2023-03-11T03:36:13;3.83;;;1.50;;
5493;SDS011;2769;49.864;8.656;2023-03-11T03:38:51;1.13;;;1.07;;
5493;SDS011;2769;49.864;8.656;2023-03-11T03:41:20;19.33;;;2.13;;
5493;SDS011;2769;49.864;8.656;2023-03-11T03:43:48;2.83;;;1.17;;
5493;SDS011;2769;49.864;8.656;2023-03-11T03:46:16;4.70;;;1.47;;
5493;SDS011;2769;49.864;8.656;2023-03-11T03:48:47;1.63;;;1.47;;
5493;SDS011;2769;49.864;8.656;2023-03-11T03:51:16;8.90;;;1.93;;
5493;SDS011;2769;49.864;8.656;2023-03-11T03:53:58;5.00;;;1.13;;
5493;SDS011;2769;49.864;8.656;2023-03-11T03:56:26;2.80;;;1.57;;
5493;SDS011;2769;49.864;8.656;2023-03-11T03:58:55;1.93;;;1.50;;
5493;SDS011;2769;49.864;8.656;2023-03-11T04:01:26;1.37;;;1.27;;
5493;SDS011;2769;49.864;8.656;2023-03-11T04:03:56;5.50;;;1.70;;
5493;SDS011;2769;49.864;8.656;2023-03-11T04:06:26;2.50;;;1.50;;
5493;SDS011;2769;49.864;8.656;2023-03-11T04:09:01;2.63;;;1.30;;
5493;SDS011;2769;49.864;8.656;2023-03-11T04:11:32;3.80;;;1.07;;
5493;SDS011;2769;49.864;8.656;2023-03-11T04:14:01;3.40;;;1.40;;
5493;SDS011;2769;49.864;8.656;2023-03-11T04:16:31;1.43;;;1.33;;
5493;SDS011;2769;49.864;8.656;2023-03-11T04:19:04;1.50;;;1.33;;
5493;SDS011;2769;49.864;8.656;2023-03-11T04:21:34;4.03;;;1.67;;
5493;SDS011;2769;49.864;8.656;2023-03-11T04:24:03;2.63;;;1.57;;
5493;SDS011;2769;49.864;8.656;2023-03-11T04:26:34;3.10;;;1.20;;
5493;SDS011;2769;49.864;8.656;2023-03-11T04:29:04;10.43;;;1.50;;
5493;SDS011;2769;49.864;8.656;2023-03-11T04:31:37;6.77;;;1.50;;
5493;SDS011;2769;49.864;8.656;2023-03-11T04:34:05;6.00;;;1.30;;
5493;SDS011;2769;49.864;8.656;2023-03-11T04:36:36;2.33;;;1.03;;
5493;SDS011;2769;49.864;8.656;2023-03-11T04:39:06;5.70;;;1.43;;
5493;SDS011;2769;49.864;8.656;2023-03-11T04:41:39;3.53;;;1.40;;
5493;SDS011;2769;49.864;8.656;2023-03-11T04:44:09;8.90;;;1.40;;
5493;SDS011;2769;49.864;8.656;2023-03-11T04:46:37;5.77;;;1.33;;
5493;SDS011;2769;49.864;8.656;2023-03-11T04:49:06;2.70;;;1.50;;
5493;SDS011;2769;49.864;8.656;2023-03-11T04:51:37;3.37;;;1.20;;
5493;SDS011;2769;49.864;8.656;2023-03-11T04:54:05;2.70;;;1.67;;
5493;SDS011;2769;49.864;8.656;2023-03-11T04:56:33;4.40;;;2.00;;
5493;SDS011;2769;49.864;8.656;2023-03-11T04:59:02;2.63;;;1.50;;
5493;SDS011;2769;49.864;8.656;2023-03-11T05:01:32;4.33;;;2.03;;
5493;SDS011;2769;49.864;8.656;2023-03-11T05:04:02;4.70;;;1.50;;
5493;SDS011;2769;49.864;8.656;2023-03-11T05:06:30;6.30;;;1.90;;
5493;SDS011;2769;49.864;8.656;2023-03-11T05:09:02;2.73;;;1.73;;
5493;SDS011;2769;49.864;8.656;2023-03-11T05:11:33;4.10;;;1.67;;
5493;SDS011;2769;49.864;8.656;2023-03-11T05:14:01;1.70;;;1.60;;
5493;SDS011;2769;49.864;8.656;2023-03-11T05:16:29;3.10;;;1.80;;
5493;SDS011;2769;49.864;8.656;2023-03-11T05:18:57;6.30;;;1.80;;
5493;SDS011;2769;49.864;8.656;2023-03-11T05:21:25;3.57;;;1.50;;
5493;SDS011;2769;49.864;8.656;2023-03-11T05:23:53;8.50;;;1.93;;
5493;SDS011;2769;49.864;8.656;2023-03-11T05:26:22;1.93;;;1.60;;
5493;SDS011;2769;49.864;8.656;2023-03-11T05:28:51;3.53;;;1.50;;
5493;SDS011;2769;49.864;8.656;2023-03-11T05:31:19;3.30;;;1.57;;
5493;SDS011;2769;49.864;8.656;2023-03-11T05:33:47;2.40;;;1.77;;
5493;SDS011;2769;49.864;8.656;2023-03-11T05:36:15;3.40;;;2.00;;
5493;SDS011;2769;49.864;8.656;2023-03-11T05:38:44;3.40;;;1.67;;
5493;SDS011;2769;49.864;8.656;2023-03-11T05:41:14;3.10;;;1.90;;
5493;SDS011;2769;49.864;8.656;2023-03-11T05:43:44;7.93;;;2.03;;
5493;SDS011;2769;49.864;8.656;2023-03-11T05:46:13;5.87;;;1.80;;
5493;SDS011;2769;49.864;8.656;2023-03-11T05:48:41;4.23;;;1.60;;
5493;SDS011;2769;49.864;8.656;2023-03-11T05:51:11;4.13;;;2.07;;
5493;SDS011;2769;49.864;8.656;2023-03-11T05:53:41;3.20;;;2.00;;
5493;SDS011;2769;49.864;8.656;2023-03-11T05:56:17;3.43;;;1.60;;
5493;SDS011;2769;49.864;8.656;2023-03-11T05:58:49;2.10;;;1.60;;
5493;SDS011;2769;49.864;8.656;2023-03-11T06:01:18;7.53;;;1.63;;
5493;SDS011;2769;49.864;8.656;2023-03-11T06:03:46;3.37;;;1.83;;
5493;SDS011;2769;49.864;8.656;2023-03-11T06:06:14;6.30;;;1.80;;
5493;SDS011;2769;49.864;8.656;2023-03-11T06:08:43;6.27;;;2.00;;
5493;SDS011;2769;49.864;8.656;2023-03-11T06:11:17;3.70;;;2.37;;
5493;SDS011;2769;49.864;8.656;2023-03-11T06:13:46;6.57;;;2.00;;
5493;SDS011;2769;49.864;8.656;2023-03-11T06:16:15;6.00;;;2.07;;
5493;SDS011;2769;49.864;8.656;2023-03-11T06:18:43;4.67;;;1.90;;
5493;SDS011;2769;49.864;8.656;2023-03-11T06:21:13;6.37;;;2.07;;
5493;SDS011;2769;49.864;8.656;2023-03-11T06:23:42;5.97;;;2.40;;
5493;SDS011;2769;49.864;8.656;2023-03-11T06:26:11;7.73;;;2.23;;
5493;SDS011;2769;49.864;8.656;2023-03-11T06:28:43;6.83;;;1.90;;
5493;SDS011;2769;49.864;8.656;2023-03-11T06:31:12;5.57;;;2.20;;
5493;SDS011;2769;49.864;8.656;2023-03-11T06:33:42;3.87;;;2.57;;
5493;SDS011;2769;49.864;8.656;2023-03-11T06:36:11;12.07;;;2.47;;
5493;SDS011;2769;49.864;8.656;2023-03-11T06:38:40;4.10;;;1.93;;
5493;SDS011;2769;49.864;8.656;2023-03-11T06:41:08;7.10;;;2.27;;
5493;SDS011;2769;49.864;8.656;2023-03-11T06:43:37;3.93;;;1.90;;
5493;SDS011;2769;49.864;8.656;2023-03-11T06:46:09;5.10;;;2.30;;
5493;SDS011;2769;49.864;8.656;2023-03-11T06:48:39;4.93;;;2.53;;
5493;SDS011;2769;49.864;8.656;2023-03-11T06:51:09;6.70;;;2.00;;
5493;SDS011;2769;49.864;8.656;2023-03-11T06:53:37;8.53;;;2.20;;
5493;SDS011;2769;49.864;8.656;2023-03-11T06:56:07;4.13;;;1.90;;
5493;SDS011;2769;49.864;8.656;2023-03-11T06:58:49;5.67;;;2.10;;
5493;SDS011;2769;49.864;8.656;2023-03-11T07:01:17;3.90;;;1.97;;
5493;SDS011;2769;49.864;8.656;2023-03-11T07:03:48;7.30;;;2.20;;
5493;SDS011;2769;49.864;8.656;2023-03-11T07:06:20;6.97;;;2.80;;
5493;SDS011;2769;49.864;8.656;2023-03-11T07:08:52;4.87;;;2.20;;
5493;SDS011;2769;49.864;8.656;2023-03-11T07:11:21;6.03;;;2.87;;
5493;SDS011;2769;49.864;8.656;2023-03-11T07:13:52;2.97;;;1.93;;
5493;SDS011;2769;49.864;8.656;2023-03-11T07:16:21;6.30;;;1.90;;
5493;SDS011;2769;49.864;8.656;2023-03-11T07:18:54;9.33;;;3.37;;
5493;SDS011;2769;49.864;8.656;2023-03-11T07:21:25;2.97;;;2.40;;
5493;SDS011;2769;49.864;8.656;2023-03-11T07:23:55;10.20;;;2.53;;
5493;SDS011;2769;49.864;8.656;2023-03-11T07:26:24;11.50;;;1.87;;
5493;SDS011;2769;49.864;8.656;2023-03-11T07:28:53;5.10;;;1.90;;
5493;SDS011;2769;49.864;8.656;2023-03-11T07:31:22;7.63;;;1.53;;
5493;SDS011;2769;49.864;8.656;2023-03-11T07:33:51;8.40;;;1.63;;
5493;SDS011;2769;49.864;8.656;2023-03-11T07:36:20;6.03;;;2.20;;
5493;SDS011;2769;49.864;8.656;2023-03-11T07:38:54;4.67;;;2.00;;
5493;SDS011;2769;49.864;8.656;2023-03-11T07:41:25;4.07;;;1.30;;
5493;SDS011;2769;49.864;8.656;2023-03-11T07:43:53;11.13;;;1.87;;
5493;SDS011;2769;49.864;8.656;2023-03-11T07:46:22;4.70;;;1.97;;
5493;SDS011;2769;49.864;8.656;2023-03-11T07:48:51;4.50;;;1.63;;
5493;SDS011;2769;49.864;8.656;2023-03-11T07:51:20;5.23;;;1.70;;
5493;SDS011;2769;49.864;8.656;2023-03-11T07:53:50;3.33;;;2.03;;
5493;SDS011;2769;49.864;8.656;2023-03-11T07:56:20;3.93;;;1.77;;
5493;SDS011;2769;49.864;8.656;2023-03-11T07:58:50;10.17;;;1.93;;
5493;SDS011;2769;49.864;8.656;2023-03-11T08:01:19;2.23;;;1.73;;
5493;SDS011;2769;49.864;8.656;2023-03-11T08:03:48;13.43;;;1.60;;
5493;SDS011;2769;49.864;8.656;2023-03-11T08:06:23;6.33;;;2.40;;
5493;SDS011;2769;49.864;8.656;2023-03-11T08:08:52;5.50;;;2.30;;
5493;SDS011;2769;49.864;8.656;2023-03-11T08:11:21;6.00;;;1.97;;
5493;SDS011;2769;49.864;8.656;2023-03-11T08:13:50;4.47;;;1.50;;
5493;SDS011;2769;49.864;8.656;2023-03-11T08:16:20;10.00;;;2.20;;
5493;SDS011;2769;49.864;8.656;2023-03-11T08:18:49;6.10;;;1.90;;
5493;SDS011;2769;49.864;8.656;2023-03-11T08:21:19;8.33;;;2.30;;
5493;SDS011;2769;49.864;8.656;2023-03-11T08:23:48;6.93;;;1.80;;
5493;SDS011;2769;49.864;8.656;2023-03-11T08:26:17;3.80;;;1.90;;
5493;SDS011;2769;49.864;8.656;2023-03-11T08:28:47;6.53;;;1.83;;
5493;SDS011;2769;49.864;8.656;2023-03-11T08:31:16;10.80;;;1.77;;
5493;SDS011;2769;49.864;8.656;2023-03-11T08:33:46;3.63;;;1.57;;
5493;SDS011;2769;49.864;8.656;2023-03-11T08:36:15;8.40;;;1.90;;
5493;SDS011;2769;49.864;8.656;2023-03-11T08:38:43;2.03;;;1.37;;
5493;SDS011;2769;49.864;8.656;2023-03-11T08:41:12;5.93;;;2.00;;
5493;SDS011;2769;49.864;8.656;2023-03-11T08:43:39;4.93;;;2.03;;
5493;SDS011;2769;49.864;8.656;2023-03-11T08:46:12;4.70;;;1.97;;
5493;SDS011;2769;49.864;8.656;2023-03-11T08:48:41;8.87;;;2.30;;
5493;SDS011;2769;49.864;8.656;2023-03-11T08:51:10;5.43;;;1.30;;
5493;SDS011;2769;49.864;8.656;2023-03-11T08:53:38;3.43;;;1.40;;
5493;SDS011;2769;49.864;8.656;2023-03-11T08:56:06;4.60;;;1.77;;
5493;SDS011;2769;49.864;8.656;2023-03-11T08:58:34;3.37;;;1.50;;
5493;SDS011;2769;49.864;8.656;2023-03-11T09:01:05;5.50;;;1.57;;
5493;SDS011;2769;49.864;8.656;2023-03-11T09:03:35;6.03;;;1.50;;
5493;SDS011;2769;49.864;8.656;2023-03-11T09:06:05;4.10;;;1.30;;
5493;SDS011;2769;49.864;8.656;2023-03-11T09:08:34;10.70;;;1.60;;
5493;SDS011;2769;49.864;8.656;2023-03-11T09:11:02;5.13;;;1.50;;
5493;SDS011;2769;49.864;8.656;2023-03-11T09:13:30;4.83;;;1.50;;
5493;SDS011;2769;49.864;8.656;2023-03-11T09:15:58;6.27;;;1.53;;
5493;SDS011;2769;49.864;8.656;2023-03-11T09:18:26;1.90;;;1.27;;
5493;SDS011;2769;49.864;8.656;2023-03-11T09:20:56;1.13;;;1.00;;
5493;SDS011;2769;49.864;8.656;2023-03-11T09:23:24;3.37;;;1.20;;
5493;SDS011;2769;49.864;8.656;2023-03-11T09:25:52;5.13;;;1.50;;
5493;SDS011;2769;49.864;8.656;2023-03-11T09:28:23;2.50;;;1.57;;
5493;SDS011;2769;49.864;8.656;2023-03-11T09:30:51;1.47;;;1.40;;
5493;SDS011;2769;49.864;8.656;2023-03-11T09:33:22;4.83;;;1.13;;
5493;SDS011;2769;49.864;8.656;2023-03-11T09:35:50;5.80;;;1.67;;
5493;SDS011;2769;49.864;8.656;2023-03-11T09:38:19;3.43;;;1.30;;
5493;SDS011;2769;49.864;8.656;2023-03-11T09:40:50;3.63;;;1.40;;
5493;SDS011;2769;49.864;8.656;2023-03-11T09:43:33;5.50;;;1.23;;
5493;SDS011;2769;49.864;8.656;2023-03-11T09:46:16;4.83;;;1.40;;
5493;SDS011;2769;49.864;8.656;2023-03-11T09:48:53;2.33;;;1.20;;
5493;SDS011;2769;49.864;8.656;2023-03-11T09:51:24;3.33;;;2.03;;
5493;SDS011;2769;49.864;8.656;2023-03-11T09:53:57;4.27;;;1.60;;
5493;SDS011;2769;49.864;8.656;2023-03-11T09:56:27;2.97;;;1.40;;
5493;SDS011;2769;49.864;8.656;2023-03-11T09:59:00;3.83;;;1.30;;
5493;SDS011;2769;49.864;8.656;2023-03-11T10:01:30;4.93;;;1.40;;
5493;SDS011;2769;49.864;8.656;2023-03-11T10:04:01;1.10;;;1.00;;
5493;SDS011;2769;49.864;8.656;2023-03-11T10:06:30;4.03;;;1.60;;
5493;SDS011;2769;49.864;8.656;2023-03-11T10:09:02;11.80;;;1.67;;
5493;SDS011;2769;49.864;8.656;2023-03-11T10:11:41;4.10;;;1.30;;
5493;SDS011;2769;49.864;8.656;2023-03-11T10:14:18;2.40;;;1.57;;
5493;SDS011;2769;49.864;8.656;2023-03-11T10:16:56;2.50;;;1.40;;
5493;SDS011;2769;49.864;8.656;2023-03-11T10:19:30;1.77;;;1.40;;
5493;SDS011;2769;49.864;8.656;2023-03-11T10:22:07;4.17;;;1.50;;
5493;SDS011;2769;49.864;8.656;2023-03-11T10:27:36;5.27;;;1.53;;
5493;SDS011;2769;49.864;8.656;2023-03-11T10:30:08;5.40;;;1.67;;
5493;SDS011;2769;49.864;8.656;2023-03-11T10:32:45;1.83;;;1.30;;
5493;SDS011;2769;49.864;8.656;2023-03-11T10:35:16;4.67;;;1.20;;
5493;SDS011;2769;49.864;8.656;2023-03-11T10:37:47;2.00;;;1.40;;
5493;SDS011;2769;49.864;8.656;2023-03-11T10:40:25;4.33;;;2.00;;
5493;SDS011;2769;49.864;8.656;2023-03-11T10:42:57;3.60;;;1.57;;
5493;SDS011;2769;49.864;8.656;2023-03-11T10:45:30;4.77;;;1.60;;
5493;SDS011;2769;49.864;8.656;2023-03-11T10:48:01;4.43;;;1.37;;
5493;SDS011;2769;49.864;8.656;2023-03-11T10:50:29;1.57;;;1.40;;
5493;SDS011;2769;49.864;8.656;2023-03-11T10:53:04;5.00;;;2.43;;
5493;SDS011;2769;49.864;8.656;2023-03-11T10:55:35;1.57;;;1.30;;
5493;SDS011;2769;49.864;8.656;2023-03-11T10:58:12;4.10;;;1.50;;
5493;SDS011;2769;49.864;8.656;2023-03-11T11:00:41;1.93;;;1.63;;
5493;SDS011;2769;49.864;8.656;2023-03-11T11:03:16;1.40;;;1.10;;
5493;SDS011;2769;49.864;8.656;2023-03-11T11:06:01;2.20;;;1.20;;
5493;SDS011;2769;49.864;8.656;2023-03-11T11:08:30;3.90;;;1.33;;
5493;SDS011;2769;49.864;8.656;2023-03-11T11:11:02;3.63;;;1.63;;
5493;SDS011;2769;49.864;8.656;2023-03-11T11:13:31;6.00;;;1.93;;
5493;SDS011;2769;49.864;8.656;2023-03-11T11:16:01;1.20;;;1.20;;
5493;SDS011;2769;49.864;8.656;2023-03-11T11:18:31;2.73;;;1.10;;
5493;SDS011;2769;49.864;8.656;2023-03-11T11:21:01;1.53;;;1.43;;
5493;SDS011;2769;49.864;8.656;2023-03-11T11:23:36;1.60;;;1.10;;
5493;SDS011;2769;49.864;8.656;2023-03-11T11:26:16;5.17;;;1.10;;
5493;SDS011;2769;49.864;8.656;2023-03-11T11:28:44;3.57;;;1.20;;
5493;SDS011;2769;49.864;8.656;2023-03-11T11:31:19;1.20;;;1.03;;
5493;SDS011;2769;49.864;8.656;2023-03-11T11:33:51;2.47;;;1.10;;
5493;SDS011;2769;49.864;8.656;2023-03-11T11:36:20;2.53;;;1.50;;
5493;SDS011;2769;49.864;8.656;2023-03-11T11:38:50;1.83;;;1.10;;
5493;SDS011;2769;49.864;8.656;2023-03-11T11:41:21;1.30;;;1.23;;
5493;SDS011;2769;49.864;8.656;2023-03-11T11:43:51;2.60;;;1.57;;
5493;SDS011;2769;49.864;8.656;2023-03-11T11:46:21;4.20;;;2.00;;
5493;SDS011;2769;49.864;8.656;2023-03-11T11:49:04;3.90;;;1.60;;
5493;SDS011;2769;49.864;8.656;2023-03-11T11:51:35;2.10;;;1.47;;
5493;SDS011;2769;49.864;8.656;2023-03-11T11:54:09;3.03;;;1.93;;
5493;SDS011;2769;49.864;8.656;2023-03-11T11:56:44;4.23;;;1.77;;
5493;SDS011;2769;49.864;8.656;2023-03-11T11:59:13;4.27;;;1.87;;
5493;SDS011;2769;49.864;8.656;2023-03-11T12:01:45;2.17;;;2.07;;
5493;SDS011;2769;49.864;8.656;2023-03-11T12:04:24;2.67;;;1.87;;
5493;SDS011;2769;49.864;8.656;2023-03-11T12:07:00;3.90;;;1.40;;
5493;SDS011;2769;49.864;8.656;2023-03-11T12:09:33;4.20;;;1.20;;
5493;SDS011;2769;49.864;8.656;2023-03-11T12:12:07;4.47;;;1.73;;
5493;SDS011;2769;49.864;8.656;2023-03-11T12:14:42;7.80;;;1.60;;
5493;SDS011;2769;49.864;8.656;2023-03-11T12:17:14;4.57;;;1.27;;
5493;SDS011;2769;49.864;8.656;2023-03-11T12:19:44;1.67;;;1.30;;
5493;SDS011;2769;49.864;8.656;2023-03-11T12:25:31;2.63;;;1.20;;
5493;SDS011;2769;49.864;8.656;2023-03-11T12:28:08;1.37;;;1.13;;
5493;SDS011;2769;49.864;8.656;2023-03-11T12:30:42;2.70;;;1.30;;
5493;SDS011;2769;49.864;8.656;2023-03-11T12:33:12;1.97;;;1.30;;
5493;SDS011;2769;49.864;8.656;2023-03-11T12:35:47;4.10;;;1.30;;
5493;SDS011;2769;49.864;8.656;2023-03-11T12:38:17;4.23;;;1.40;;
5493;SDS011;2769;49.864;8.656;2023-03-11T12:52:59;4.03;;;1.50;;
5493;SDS011;2769;49.864;8.656;2023-03-11T12:55:31;4.70;;;1.33;;
5493;SDS011;2769;49.864;8.656;2023-03-11T12:58:03;5.30;;;1.17;;
5493;SDS011;2769;49.864;8.656;2023-03-11T13:00:48;4.40;;;1.27;;
5493;SDS011;2769;49.864;8.656;2023-03-11T13:03:31;4.20;;;1.40;;
5493;SDS011;2769;49.864;8.656;2023-03-11T13:06:28;1.90;;;1.47;;
5493;SDS011;2769;49.864;8.656;2023-03-11T13:09:03;5.23;;;1.30;;
5493;SDS011;2769;49.864;8.656;2023-03-11T13:11:35;10.77;;;1.70;;
5493;SDS011;2769;49.864;8.656;2023-03-11T13:14:24;2.27;;;1.50;;
5493;SDS011;2769;49.864;8.656;2023-03-11T13:16:56;5.87;;;1.53;;
5493;SDS011;2769;49.864;8.656;2023-03-11T13:19:50;3.23;;;1.50;;
5493;SDS011;2769;49.864;8.656;2023-03-11T13:22:39;2.23;;;1.50;;
5493;SDS011;2769;49.864;8.656;2023-03-11T13:28:26;2.30;;;1.33;;
5493;SDS011;2769;49.864;8.656;2023-03-11T13:31:13;5.53;;;1.87;;
5493;SDS011;2769;49.864;8.656;2023-03-11T13:33:51;2.63;;;1.40;;
5493;SDS011;2769;49.864;8.656;2023-03-11T13:36:24;2.13;;;1.40;;
5493;SDS011;2769;49.864;8.656;2023-03-11T13:39:05;3.13;;;2.30;;
5493;SDS011;2769;49.864;8.656;2023-03-11T13:41:43;1.97;;;1.40;;
5493;SDS011;2769;49.864;8.656;2023-03-11T13:44:15;7.40;;;1.43;;
5493;SDS011;2769;49.864;8.656;2023-03-11T13:46:51;4.67;;;1.50;;
5493;SDS011;2769;49.864;8.656;2023-03-11T13:49:27;2.60;;;1.90;;
5493;SDS011;2769;49.864;8.656;2023-03-11T13:51:59;4.27;;;1.57;;
5493;SDS011;2769;49.864;8.656;2023-03-11T13:54:30;2.43;;;1.50;;
5493;SDS011;2769;49.864;8.656;2023-03-11T13:57:01;5.43;;;1.50;;
5493;SDS011;2769;49.864;8.656;2023-03-11T13:59:30;2.97;;;1.43;;
5493;SDS011;2769;49.864;8.656;2023-03-11T14:02:03;2.83;;;1.20;;
5493;SDS011;2769;49.864;8.656;2023-03-11T14:04:41;3.20;;;1.40;;
5493;SDS011;2769;49.864;8.656;2023-03-11T14:07:18;4.10;;;1.73;;
5493;SDS011;2769;49.864;8.656;2023-03-11T14:09:48;4.57;;;1.60;;
5493;SDS011;2769;49.864;8.656;2023-03-11T14:12:16;3.83;;;1.50;;
5493;SDS011;2769;49.864;8.656;2023-03-11T14:14:45;1.73;;;1.53;;
5493;SDS011;2769;49.864;8.656;2023-03-11T14:17:16;5.07;;;1.70;;
5493;SDS011;2769;49.864;8.656;2023-03-11T14:22:35;6.20;;;2.67;;
5493;SDS011;2769;49.864;8.656;2023-03-11T14:25:05;2.60;;;1.40;;
5493;SDS011;2769;49.864;8.656;2023-03-11T14:27:34;6.00;;;1.60;;
5493;SDS011;2769;49.864;8.656;2023-03-11T14:30:05;2.30;;;1.70;;
5493;SDS011;2769;49.864;8.656;2023-03-11T14:32:34;7.37;;;1.43;;
5493;SDS011;2769;49.864;8.656;2023-03-11T14:35:15;2.37;;;1.63;;
5493;SDS011;2769;49.864;8.656;2023-03-11T14:37:45;3.50;;;1.40;;
5493;SDS011;2769;49.864;8.656;2023-03-11T14:40:21;3.83;;;1.60;;
5493;SDS011;2769;49.864;8.656;2023-03-11T14:42:50;1.63;;;1.50;;
5493;SDS011;2769;49.864;8.656;2023-03-11T14:45:20;2.60;;;1.63;;
5493;SDS011;2769;49.864;8.656;2023-03-11T14:47:50;3.40;;;1.60;;
5493;SDS011;2769;49.864;8.656;2023-03-11T14:52:52;2.40;;;1.40;;
5493;SDS011;2769;49.864;8.656;2023-03-11T14:55:22;4.77;;;1.60;;
5493;SDS011;2769;49.864;8.656;2023-03-11T14:57:54;3.60;;;1.20;;
5493;SDS011;2769;49.864;8.656;2023-03-11T15:00:24;3.97;;;1.40;;
5493;SDS011;2769;49.864;8.656;2023-03-11T15:03:07;6.53;;;1.70;;
5493;SDS011;2769;49.864;8.656;2023-03-11T15:05:43;4.00;;;1.60;;
5493;SDS011;2769;49.864;8.656;2023-03-11T15:08:14;4.70;;;1.67;;
5493;SDS011;2769;49.864;8.656;2023-03-11T15:11:00;6.40;;;1.30;;
5493;SDS011;2769;49.864;8.656;2023-03-11T15:13:43;1.83;;;1.40;;
5493;SDS011;2769;49.864;8.656;2023-03-11T15:16:20;2.90;;;1.73;;
5493;SDS011;2769;49.864;8.656;2023-03-11T15:18:57;3.63;;;1.57;;
5493;SDS011;2769;49.864;8.656;2023-03-11T15:21:27;7.60;;;2.20;;
5493;SDS011;2769;49.864;8.656;2023-03-11T15:23:58;3.00;;;1.70;;
5493;SDS011;2769;49.864;8.656;2023-03-11T15:26:28;1.97;;;1.30;;
5493;SDS011;2769;49.864;8.656;2023-03-11T15:28:57;5.57;;;2.37;;
5493;SDS011;2769;49.864;8.656;2023-03-11T15:31:30;4.20;;;1.50;;
5493;SDS011;2769;49.864;8.656;2023-03-11T15:34:07;1.90;;;1.73;;
5493;SDS011;2769;49.864;8.656;2023-03-11T15:36:39;3.10;;;1.37;;
5493;SDS011;2769;49.864;8.656;2023-03-11T15:39:12;3.53;;;1.57;;
5493;SDS011;2769;49.864;8.656;2023-03-11T15:41:44;3.63;;;1.70;;
5493;SDS011;2769;49.864;8.656;2023-03-11T15:44:21;2.43;;;1.20;;
5493;SDS011;2769;49.864;8.656;2023-03-11T15:46:51;2.50;;;1.50;;
5493;SDS011;2769;49.864;8.656;2023-03-11T15:49:19;5.90;;;1.40;;
5493;SDS011;2769;49.864;8.656;2023-03-11T15:51:48;2.03;;;1.23;;
5493;SDS011;2769;49.864;8.656;2023-03-11T15:54:16;2.63;;;1.40;;
5493;SDS011;2769;49.864;8.656;2023-03-11T15:56:44;2.37;;;1.27;;
5493;SDS011;2769;49.864;8.656;2023-03-11T15:59:13;7.30;;;2.00;;
5493;SDS011;2769;49.864;8.656;2023-03-11T16:01:42;3.40;;;2.23;;
5493;SDS011;2769;49.864;8.656;2023-03-11T16:04:15;4.60;;;2.20;;
5493;SDS011;2769;49.864;8.656;2023-03-11T16:06:45;4.50;;;2.10;;
5493;SDS011;2769;49.864;8.656;2023-03-11T16:09:29;3.27;;;1.37;;